Impacts METAR Board
IDs:

KSSF - San Antonio/Stinson, TX, US

Updated at: 0300 UTC 06 Dec 2019
Potential Impact None Slight Moderate High
Time 05/15Z 05/16Z 05/17Z 05/18Z 05/19Z 05/20Z 05/21Z 05/22Z 05/23Z 06/00Z 06/01Z 06/02Z 06/03Z
Temp56 57 59 62 65 70 71 70 64 62 59 58
Dewpt56 57 59 60 60 62 62 62 61 60 58 58
Altim30.04 30.08 30.06 30.04 30.00 29.94 29.93 29.93 29.93 29.95 29.96 29.97
VIS0.25 1 4 10 10 10 10 10 10 10 9 6
CIG3 3 4 7 12 -- -- -- -- -- -- --
CoverOVXOVCOVCOVCOVCCLRCLRCLRCLRCLRCLRCLR
FltCatLIFRLIFRLIFRIFRMVFRVFRVFRVFRVFRVFRVFRVFR
WXFGBRBR----------------BR
WDir02802502402101802000000350
WSpd0 3 3 6 5 5 3 3 0 0 0 3
WGst-- -- -- -- -- -- -- -- -- -- -- --
Raw hourly METARs
KSSF 051453Z 00000KT 1/4SM FG VV003 13/13 A3004 RMK AO2 SLP173 T01330133 53015
KSSF 051553Z 28003KT 1SM BR OVC003 14/14 A3008 RMK AO2 SLP184 T01390139
KSSF 051653Z 25003KT 4SM BR OVC004 15/15 A3006 RMK AO2 SLP178 T01500150
KSSF 051753Z 24006KT 10SM OVC007 17/16 A3004 RMK AO2 SLP171 T01670156 10167 20111 58013
KSSF 051853Z 21005KT 10SM OVC012 18/16 A3000 RMK AO2 SLP156 T01830156

KSSF 052053Z 18005KT 10SM CLR 21/17 A2994 RMK AO2 SLP136 T02110167
KSSF 052153Z 20003KT 10SM CLR 22/17 A2993 RMK AO2 SLP132 T02170167
KSSF 052253Z VRB03KT 10SM CLR 21/17 A2993 RMK AO2 SLP132 T02110167
KSSF 052353Z 00000KT 10SM CLR 18/16 A2993 RMK AO2 SLP134 T01780161 10222 20150 55003
KSSF 060053Z 00000KT 10SM CLR 17/16 A2995 RMK AO2 SLP141 T01670156
KSSF 060153Z 00000KT 9SM CLR 15/14 A2996 RMK AO2 SLP144 T01500144
KSSF 060253Z 35003KT 6SM BR CLR 14/14 A2997 RMK AO2 SLP148 T01440144 51014